sensor_id;sensor_type;location;lat;lon;timestamp;P1;durP1;ratioP1;P2;durP2;ratioP2
34060;SDS011;20336;-33.424;-70.638;2022-08-19T00:01:25;5.63;;;2.90;;
34060;SDS011;20336;-33.424;-70.638;2022-08-19T00:03:57;5.97;;;2.30;;
34060;SDS011;20336;-33.424;-70.638;2022-08-19T00:06:25;6.13;;;2.90;;
34060;SDS011;20336;-33.424;-70.638;2022-08-19T00:08:52;10.40;;;3.43;;
34060;SDS011;20336;-33.424;-70.638;2022-08-19T00:11:19;8.90;;;3.30;;
34060;SDS011;20336;-33.424;-70.638;2022-08-19T00:13:46;6.37;;;3.10;;
34060;SDS011;20336;-33.424;-70.638;2022-08-19T00:16:15;9.20;;;3.53;;
34060;SDS011;20336;-33.424;-70.638;2022-08-19T00:18:44;17.70;;;4.00;;
34060;SDS011;20336;-33.424;-70.638;2022-08-19T00:21:11;9.97;;;4.40;;
34060;SDS011;20336;-33.424;-70.638;2022-08-19T00:23:40;11.87;;;4.67;;
34060;SDS011;20336;-33.424;-70.638;2022-08-19T00:26:08;14.87;;;6.50;;
34060;SDS011;20336;-33.424;-70.638;2022-08-19T00:28:36;14.50;;;5.90;;
34060;SDS011;20336;-33.424;-70.638;2022-08-19T00:31:04;12.73;;;4.13;;
34060;SDS011;20336;-33.424;-70.638;2022-08-19T00:33:31;8.63;;;4.40;;
34060;SDS011;20336;-33.424;-70.638;2022-08-19T00:35:59;13.10;;;5.10;;
34060;SDS011;20336;-33.424;-70.638;2022-08-19T00:38:26;10.83;;;4.53;;
34060;SDS011;20336;-33.424;-70.638;2022-08-19T00:40:53;11.70;;;4.87;;
34060;SDS011;20336;-33.424;-70.638;2022-08-19T00:43:22;8.53;;;4.90;;
34060;SDS011;20336;-33.424;-70.638;2022-08-19T00:45:49;9.33;;;4.20;;
34060;SDS011;20336;-33.424;-70.638;2022-08-19T00:48:17;10.80;;;4.90;;
34060;SDS011;20336;-33.424;-70.638;2022-08-19T00:50:44;10.83;;;6.37;;
34060;SDS011;20336;-33.424;-70.638;2022-08-19T00:53:12;9.97;;;5.90;;
34060;SDS011;20336;-33.424;-70.638;2022-08-19T00:55:41;9.30;;;4.63;;
34060;SDS011;20336;-33.424;-70.638;2022-08-19T00:58:10;10.60;;;4.73;;
34060;SDS011;20336;-33.424;-70.638;2022-08-19T01:00:38;10.17;;;4.20;;
34060;SDS011;20336;-33.424;-70.638;2022-08-19T01:03:08;9.27;;;4.00;;
34060;SDS011;20336;-33.424;-70.638;2022-08-19T01:05:36;7.87;;;3.80;;
34060;SDS011;20336;-33.424;-70.638;2022-08-19T01:08:04;8.67;;;3.90;;
34060;SDS011;20336;-33.424;-70.638;2022-08-19T01:10:32;8.43;;;3.90;;
34060;SDS011;20336;-33.424;-70.638;2022-08-19T01:13:00;10.63;;;5.03;;
34060;SDS011;20336;-33.424;-70.638;2022-08-19T01:15:32;9.50;;;5.20;;
34060;SDS011;20336;-33.424;-70.638;2022-08-19T01:18:00;16.10;;;5.40;;
34060;SDS011;20336;-33.424;-70.638;2022-08-19T01:20:27;8.93;;;5.70;;
34060;SDS011;20336;-33.424;-70.638;2022-08-19T01:22:56;19.43;;;5.70;;
34060;SDS011;20336;-33.424;-70.638;2022-08-19T01:25:29;13.23;;;7.30;;
34060;SDS011;20336;-33.424;-70.638;2022-08-19T01:27:57;17.30;;;9.30;;
34060;SDS011;20336;-33.424;-70.638;2022-08-19T01:30:29;41.93;;;18.17;;
34060;SDS011;20336;-33.424;-70.638;2022-08-19T01:32:57;19.27;;;10.97;;
34060;SDS011;20336;-33.424;-70.638;2022-08-19T01:35:26;20.30;;;11.77;;
34060;SDS011;20336;-33.424;-70.638;2022-08-19T01:37:55;31.53;;;16.00;;
34060;SDS011;20336;-33.424;-70.638;2022-08-19T01:40:23;29.10;;;17.20;;
34060;SDS011;20336;-33.424;-70.638;2022-08-19T01:42:51;24.37;;;12.87;;
34060;SDS011;20336;-33.424;-70.638;2022-08-19T01:45:19;21.33;;;11.33;;
34060;SDS011;20336;-33.424;-70.638;2022-08-19T01:47:47;17.63;;;9.70;;
34060;SDS011;20336;-33.424;-70.638;2022-08-19T01:50:14;25.90;;;13.20;;
34060;SDS011;20336;-33.424;-70.638;2022-08-19T01:52:41;18.27;;;10.87;;
34060;SDS011;20336;-33.424;-70.638;2022-08-19T01:55:11;17.33;;;10.20;;
34060;SDS011;20336;-33.424;-70.638;2022-08-19T01:57:39;18.93;;;9.13;;
34060;SDS011;20336;-33.424;-70.638;2022-08-19T02:00:09;14.17;;;8.77;;
34060;SDS011;20336;-33.424;-70.638;2022-08-19T02:02:36;16.10;;;8.70;;
34060;SDS011;20336;-33.424;-70.638;2022-08-19T02:05:04;15.57;;;8.23;;
34060;SDS011;20336;-33.424;-70.638;2022-08-19T02:07:34;13.10;;;8.30;;
34060;SDS011;20336;-33.424;-70.638;2022-08-19T02:10:03;13.43;;;8.83;;
34060;SDS011;20336;-33.424;-70.638;2022-08-19T02:12:30;17.43;;;9.87;;
34060;SDS011;20336;-33.424;-70.638;2022-08-19T02:14:56;16.03;;;8.83;;
34060;SDS011;20336;-33.424;-70.638;2022-08-19T02:17:23;19.33;;;10.93;;
34060;SDS011;20336;-33.424;-70.638;2022-08-19T02:19:50;17.97;;;10.40;;
34060;SDS011;20336;-33.424;-70.638;2022-08-19T02:22:17;17.20;;;10.60;;
34060;SDS011;20336;-33.424;-70.638;2022-08-19T02:24:44;23.53;;;11.00;;
34060;SDS011;20336;-33.424;-70.638;2022-08-19T02:27:11;18.20;;;9.27;;
34060;SDS011;20336;-33.424;-70.638;2022-08-19T02:29:38;15.67;;;7.10;;
34060;SDS011;20336;-33.424;-70.638;2022-08-19T02:32:06;13.83;;;6.50;;
34060;SDS011;20336;-33.424;-70.638;2022-08-19T02:34:33;12.63;;;6.50;;
34060;SDS011;20336;-33.424;-70.638;2022-08-19T02:37:00;14.97;;;6.90;;
34060;SDS011;20336;-33.424;-70.638;2022-08-19T02:39:27;20.47;;;7.83;;
34060;SDS011;20336;-33.424;-70.638;2022-08-19T02:41:54;16.13;;;7.93;;
34060;SDS011;20336;-33.424;-70.638;2022-08-19T02:44:21;14.83;;;9.00;;
34060;SDS011;20336;-33.424;-70.638;2022-08-19T02:46:47;16.23;;;8.67;;
34060;SDS011;20336;-33.424;-70.638;2022-08-19T02:49:17;18.80;;;9.57;;
34060;SDS011;20336;-33.424;-70.638;2022-08-19T02:51:45;18.83;;;9.00;;
34060;SDS011;20336;-33.424;-70.638;2022-08-19T02:54:12;16.87;;;8.60;;
34060;SDS011;20336;-33.424;-70.638;2022-08-19T02:56:39;19.27;;;8.83;;
34060;SDS011;20336;-33.424;-70.638;2022-08-19T02:59:06;17.40;;;8.60;;
34060;SDS011;20336;-33.424;-70.638;2022-08-19T03:01:36;19.53;;;9.97;;
34060;SDS011;20336;-33.424;-70.638;2022-08-19T03:04:05;22.73;;;11.17;;
34060;SDS011;20336;-33.424;-70.638;2022-08-19T03:06:31;20.07;;;10.40;;
34060;SDS011;20336;-33.424;-70.638;2022-08-19T03:08:58;27.13;;;11.57;;
34060;SDS011;20336;-33.424;-70.638;2022-08-19T03:11:30;21.40;;;11.03;;
34060;SDS011;20336;-33.424;-70.638;2022-08-19T03:13:57;24.80;;;12.50;;
34060;SDS011;20336;-33.424;-70.638;2022-08-19T03:16:25;20.40;;;12.23;;
34060;SDS011;20336;-33.424;-70.638;2022-08-19T03:18:53;19.30;;;12.13;;
34060;SDS011;20336;-33.424;-70.638;2022-08-19T03:21:22;26.50;;;13.77;;
34060;SDS011;20336;-33.424;-70.638;2022-08-19T03:23:50;23.53;;;13.17;;
34060;SDS011;20336;-33.424;-70.638;2022-08-19T03:26:20;32.80;;;14.20;;
34060;SDS011;20336;-33.424;-70.638;2022-08-19T03:28:47;25.73;;;14.50;;
34060;SDS011;20336;-33.424;-70.638;2022-08-19T03:31:16;24.50;;;14.83;;
34060;SDS011;20336;-33.424;-70.638;2022-08-19T03:33:44;26.77;;;15.70;;
34060;SDS011;20336;-33.424;-70.638;2022-08-19T03:36:16;34.93;;;19.40;;
34060;SDS011;20336;-33.424;-70.638;2022-08-19T03:38:44;36.30;;;19.13;;
34060;SDS011;20336;-33.424;-70.638;2022-08-19T03:41:13;39.20;;;20.67;;
34060;SDS011;20336;-33.424;-70.638;2022-08-19T03:43:41;36.47;;;19.70;;
34060;SDS011;20336;-33.424;-70.638;2022-08-19T03:46:09;30.53;;;16.97;;
34060;SDS011;20336;-33.424;-70.638;2022-08-19T03:48:37;29.70;;;16.77;;
34060;SDS011;20336;-33.424;-70.638;2022-08-19T03:51:04;28.77;;;15.60;;
34060;SDS011;20336;-33.424;-70.638;2022-08-19T03:53:32;29.73;;;15.20;;
34060;SDS011;20336;-33.424;-70.638;2022-08-19T03:55:59;27.50;;;14.47;;
34060;SDS011;20336;-33.424;-70.638;2022-08-19T03:58:26;25.97;;;14.23;;
34060;SDS011;20336;-33.424;-70.638;2022-08-19T04:00:56;29.50;;;14.20;;
34060;SDS011;20336;-33.424;-70.638;2022-08-19T04:03:23;22.77;;;12.57;;
34060;SDS011;20336;-33.424;-70.638;2022-08-19T04:05:52;24.07;;;11.40;;
34060;SDS011;20336;-33.424;-70.638;2022-08-19T04:08:19;20.57;;;11.23;;
34060;SDS011;20336;-33.424;-70.638;2022-08-19T04:10:48;19.87;;;10.00;;
34060;SDS011;20336;-33.424;-70.638;2022-08-19T04:13:16;15.93;;;8.83;;
34060;SDS011;20336;-33.424;-70.638;2022-08-19T04:15:44;14.80;;;9.03;;
34060;SDS011;20336;-33.424;-70.638;2022-08-19T04:18:12;15.07;;;9.00;;
34060;SDS011;20336;-33.424;-70.638;2022-08-19T04:20:43;16.33;;;9.40;;
34060;SDS011;20336;-33.424;-70.638;2022-08-19T04:23:11;18.03;;;9.63;;
34060;SDS011;20336;-33.424;-70.638;2022-08-19T04:25:41;10.80;;;7.63;;
34060;SDS011;20336;-33.424;-70.638;2022-08-19T04:28:10;16.13;;;8.27;;
34060;SDS011;20336;-33.424;-70.638;2022-08-19T04:30:41;20.00;;;10.80;;
34060;SDS011;20336;-33.424;-70.638;2022-08-19T04:33:10;22.57;;;12.23;;
34060;SDS011;20336;-33.424;-70.638;2022-08-19T04:35:38;23.13;;;13.47;;
34060;SDS011;20336;-33.424;-70.638;2022-08-19T04:38:05;27.57;;;14.57;;
34060;SDS011;20336;-33.424;-70.638;2022-08-19T04:40:32;24.70;;;15.20;;
34060;SDS011;20336;-33.424;-70.638;2022-08-19T04:43:17;28.63;;;16.57;;
34060;SDS011;20336;-33.424;-70.638;2022-08-19T04:45:44;29.83;;;17.53;;
34060;SDS011;20336;-33.424;-70.638;2022-08-19T04:48:12;39.87;;;20.03;;
34060;SDS011;20336;-33.424;-70.638;2022-08-19T04:50:40;38.33;;;20.90;;
34060;SDS011;20336;-33.424;-70.638;2022-08-19T04:53:07;49.37;;;25.70;;
34060;SDS011;20336;-33.424;-70.638;2022-08-19T04:55:34;46.77;;;26.37;;
34060;SDS011;20336;-33.424;-70.638;2022-08-19T04:58:01;46.57;;;23.87;;
34060;SDS011;20336;-33.424;-70.638;2022-08-19T05:00:28;40.57;;;22.83;;
34060;SDS011;20336;-33.424;-70.638;2022-08-19T05:02:55;40.03;;;21.63;;
34060;SDS011;20336;-33.424;-70.638;2022-08-19T05:05:21;36.97;;;20.67;;
34060;SDS011;20336;-33.424;-70.638;2022-08-19T05:07:48;34.47;;;20.50;;
34060;SDS011;20336;-33.424;-70.638;2022-08-19T05:10:15;36.00;;;20.77;;
34060;SDS011;20336;-33.424;-70.638;2022-08-19T05:12:55;41.00;;;22.30;;
34060;SDS011;20336;-33.424;-70.638;2022-08-19T05:15:22;39.30;;;23.03;;
34060;SDS011;20336;-33.424;-70.638;2022-08-19T05:17:49;39.30;;;22.37;;
34060;SDS011;20336;-33.424;-70.638;2022-08-19T05:20:37;36.17;;;20.07;;
34060;SDS011;20336;-33.424;-70.638;2022-08-19T05:23:22;31.63;;;17.90;;
34060;SDS011;20336;-33.424;-70.638;2022-08-19T05:25:49;33.20;;;18.47;;
34060;SDS011;20336;-33.424;-70.638;2022-08-19T05:28:17;26.80;;;17.20;;
34060;SDS011;20336;-33.424;-70.638;2022-08-19T05:30:44;27.13;;;17.00;;
34060;SDS011;20336;-33.424;-70.638;2022-08-19T05:33:11;29.70;;;18.37;;
34060;SDS011;20336;-33.424;-70.638;2022-08-19T05:35:38;28.93;;;17.50;;
34060;SDS011;20336;-33.424;-70.638;2022-08-19T05:38:06;28.87;;;17.03;;
34060;SDS011;20336;-33.424;-70.638;2022-08-19T05:40:34;28.13;;;17.53;;
34060;SDS011;20336;-33.424;-70.638;2022-08-19T05:43:05;26.43;;;15.63;;
34060;SDS011;20336;-33.424;-70.638;2022-08-19T05:45:32;29.47;;;15.70;;
34060;SDS011;20336;-33.424;-70.638;2022-08-19T05:47:59;22.83;;;13.47;;
34060;SDS011;20336;-33.424;-70.638;2022-08-19T05:50:26;18.83;;;12.30;;
34060;SDS011;20336;-33.424;-70.638;2022-08-19T05:52:53;23.50;;;14.10;;
34060;SDS011;20336;-33.424;-70.638;2022-08-19T05:55:19;24.13;;;13.63;;
34060;SDS011;20336;-33.424;-70.638;2022-08-19T05:57:47;21.97;;;12.93;;
34060;SDS011;20336;-33.424;-70.638;2022-08-19T06:00:15;27.20;;;15.80;;
34060;SDS011;20336;-33.424;-70.638;2022-08-19T06:02:42;26.77;;;15.40;;
34060;SDS011;20336;-33.424;-70.638;2022-08-19T06:05:09;29.40;;;17.47;;
34060;SDS011;20336;-33.424;-70.638;2022-08-19T06:07:36;31.80;;;17.67;;
34060;SDS011;20336;-33.424;-70.638;2022-08-19T06:10:04;36.73;;;20.77;;
34060;SDS011;20336;-33.424;-70.638;2022-08-19T06:12:33;36.63;;;21.20;;
34060;SDS011;20336;-33.424;-70.638;2022-08-19T06:15:02;39.93;;;21.90;;
34060;SDS011;20336;-33.424;-70.638;2022-08-19T06:17:29;41.20;;;23.77;;
34060;SDS011;20336;-33.424;-70.638;2022-08-19T06:19:56;40.03;;;24.93;;
34060;SDS011;20336;-33.424;-70.638;2022-08-19T06:22:23;51.70;;;26.87;;
34060;SDS011;20336;-33.424;-70.638;2022-08-19T06:24:50;53.73;;;29.47;;
34060;SDS011;20336;-33.424;-70.638;2022-08-19T06:27:19;52.43;;;29.70;;
34060;SDS011;20336;-33.424;-70.638;2022-08-19T06:29:46;58.10;;;28.37;;
34060;SDS011;20336;-33.424;-70.638;2022-08-19T06:32:14;47.40;;;25.33;;
34060;SDS011;20336;-33.424;-70.638;2022-08-19T06:34:41;58.33;;;29.40;;
34060;SDS011;20336;-33.424;-70.638;2022-08-19T06:37:08;62.87;;;30.70;;
34060;SDS011;20336;-33.424;-70.638;2022-08-19T06:39:36;61.97;;;32.87;;
34060;SDS011;20336;-33.424;-70.638;2022-08-19T06:42:05;50.20;;;28.80;;
34060;SDS011;20336;-33.424;-70.638;2022-08-19T06:44:35;46.63;;;27.60;;
34060;SDS011;20336;-33.424;-70.638;2022-08-19T06:47:03;48.23;;;25.10;;
34060;SDS011;20336;-33.424;-70.638;2022-08-19T06:49:30;53.63;;;26.23;;
34060;SDS011;20336;-33.424;-70.638;2022-08-19T06:51:57;44.57;;;24.33;;
34060;SDS011;20336;-33.424;-70.638;2022-08-19T06:54:25;46.67;;;23.97;;
34060;SDS011;20336;-33.424;-70.638;2022-08-19T06:56:53;47.23;;;25.40;;
34060;SDS011;20336;-33.424;-70.638;2022-08-19T06:59:21;49.93;;;26.73;;
34060;SDS011;20336;-33.424;-70.638;2022-08-19T07:01:53;48.33;;;26.40;;
34060;SDS011;20336;-33.424;-70.638;2022-08-19T07:04:21;44.53;;;24.77;;
34060;SDS011;20336;-33.424;-70.638;2022-08-19T07:06:49;42.33;;;23.23;;
34060;SDS011;20336;-33.424;-70.638;2022-08-19T07:09:17;38.67;;;21.57;;
34060;SDS011;20336;-33.424;-70.638;2022-08-19T07:11:48;49.57;;;22.73;;
34060;SDS011;20336;-33.424;-70.638;2022-08-19T07:14:15;42.60;;;24.47;;
34060;SDS011;20336;-33.424;-70.638;2022-08-19T07:16:43;40.27;;;22.30;;
34060;SDS011;20336;-33.424;-70.638;2022-08-19T07:19:11;41.43;;;22.37;;
34060;SDS011;20336;-33.424;-70.638;2022-08-19T07:21:38;38.23;;;21.63;;
34060;SDS011;20336;-33.424;-70.638;2022-08-19T07:24:05;38.80;;;21.00;;
34060;SDS011;20336;-33.424;-70.638;2022-08-19T07:26:40;39.77;;;19.43;;
34060;SDS011;20336;-33.424;-70.638;2022-08-19T07:29:07;34.57;;;19.27;;
34060;SDS011;20336;-33.424;-70.638;2022-08-19T07:31:34;36.17;;;20.83;;
34060;SDS011;20336;-33.424;-70.638;2022-08-19T07:34:03;31.77;;;19.47;;
34060;SDS011;20336;-33.424;-70.638;2022-08-19T07:36:33;34.67;;;20.63;;
34060;SDS011;20336;-33.424;-70.638;2022-08-19T07:39:02;36.53;;;20.03;;
34060;SDS011;20336;-33.424;-70.638;2022-08-19T07:41:30;38.10;;;18.77;;
34060;SDS011;20336;-33.424;-70.638;2022-08-19T07:44:00;39.47;;;20.37;;
34060;SDS011;20336;-33.424;-70.638;2022-08-19T07:46:30;33.43;;;19.43;;
34060;SDS011;20336;-33.424;-70.638;2022-08-19T07:48:57;35.70;;;19.40;;
34060;SDS011;20336;-33.424;-70.638;2022-08-19T07:51:26;36.23;;;20.03;;
34060;SDS011;20336;-33.424;-70.638;2022-08-19T07:53:53;39.20;;;20.17;;
34060;SDS011;20336;-33.424;-70.638;2022-08-19T07:56:20;47.07;;;22.60;;
34060;SDS011;20336;-33.424;-70.638;2022-08-19T07:58:48;45.43;;;23.73;;
34060;SDS011;20336;-33.424;-70.638;2022-08-19T08:01:19;53.33;;;26.30;;
34060;SDS011;20336;-33.424;-70.638;2022-08-19T08:03:46;51.23;;;28.70;;
34060;SDS011;20336;-33.424;-70.638;2022-08-19T08:06:31;56.20;;;29.83;;
34060;SDS011;20336;-33.424;-70.638;2022-08-19T08:09:18;59.03;;;28.60;;
34060;SDS011;20336;-33.424;-70.638;2022-08-19T08:11:53;49.90;;;28.97;;
34060;SDS011;20336;-33.424;-70.638;2022-08-19T08:14:21;62.47;;;33.47;;
34060;SDS011;20336;-33.424;-70.638;2022-08-19T08:16:49;61.17;;;29.87;;
34060;SDS011;20336;-33.424;-70.638;2022-08-19T08:19:20;55.30;;;31.07;;
34060;SDS011;20336;-33.424;-70.638;2022-08-19T08:21:48;59.13;;;30.27;;
34060;SDS011;20336;-33.424;-70.638;2022-08-19T08:24:16;55.23;;;28.47;;
34060;SDS011;20336;-33.424;-70.638;2022-08-19T08:26:43;61.80;;;30.57;;
34060;SDS011;20336;-33.424;-70.638;2022-08-19T08:29:10;50.87;;;27.33;;
34060;SDS011;20336;-33.424;-70.638;2022-08-19T08:31:41;60.70;;;29.93;;
34060;SDS011;20336;-33.424;-70.638;2022-08-19T08:34:08;55.67;;;30.30;;
34060;SDS011;20336;-33.424;-70.638;2022-08-19T08:36:38;59.03;;;30.40;;
34060;SDS011;20336;-33.424;-70.638;2022-08-19T08:39:08;61.53;;;32.07;;
34060;SDS011;20336;-33.424;-70.638;2022-08-19T08:41:46;64.83;;;31.53;;
34060;SDS011;20336;-33.424;-70.638;2022-08-19T08:44:22;55.87;;;29.70;;
34060;SDS011;20336;-33.424;-70.638;2022-08-19T08:46:51;64.57;;;33.60;;
34060;SDS011;20336;-33.424;-70.638;2022-08-19T08:49:41;57.17;;;29.10;;
34060;SDS011;20336;-33.424;-70.638;2022-08-19T08:52:10;64.53;;;32.83;;
34060;SDS011;20336;-33.424;-70.638;2022-08-19T08:54:40;63.20;;;32.03;;
34060;SDS011;20336;-33.424;-70.638;2022-08-19T08:57:18;64.93;;;32.67;;
34060;SDS011;20336;-33.424;-70.638;2022-08-19T08:59:46;60.50;;;30.53;;
34060;SDS011;20336;-33.424;-70.638;2022-08-19T09:02:16;62.17;;;31.63;;
34060;SDS011;20336;-33.424;-70.638;2022-08-19T09:04:43;59.43;;;30.73;;
34060;SDS011;20336;-33.424;-70.638;2022-08-19T09:09:46;60.00;;;31.93;;
34060;SDS011;20336;-33.424;-70.638;2022-08-19T09:17:13;62.37;;;31.03;;
34060;SDS011;20336;-33.424;-70.638;2022-08-19T09:19:48;66.33;;;30.17;;
34060;SDS011;20336;-33.424;-70.638;2022-08-19T09:22:15;58.93;;;29.43;;
34060;SDS011;20336;-33.424;-70.638;2022-08-19T09:24:42;62.10;;;28.73;;
34060;SDS011;20336;-33.424;-70.638;2022-08-19T09:27:09;62.73;;;29.57;;
34060;SDS011;20336;-33.424;-70.638;2022-08-19T09:29:36;56.27;;;27.43;;
34060;SDS011;20336;-33.424;-70.638;2022-08-19T09:32:03;52.43;;;27.23;;
34060;SDS011;20336;-33.424;-70.638;2022-08-19T09:34:31;50.33;;;26.40;;
34060;SDS011;20336;-33.424;-70.638;2022-08-19T09:36:58;58.27;;;27.70;;
34060;SDS011;20336;-33.424;-70.638;2022-08-19T09:39:25;51.63;;;25.93;;
34060;SDS011;20336;-33.424;-70.638;2022-08-19T09:41:52;54.70;;;26.80;;
34060;SDS011;20336;-33.424;-70.638;2022-08-19T09:44:19;53.20;;;26.43;;
34060;SDS011;20336;-33.424;-70.638;2022-08-19T09:46:46;55.33;;;25.90;;
34060;SDS011;20336;-33.424;-70.638;2022-08-19T09:49:13;50.93;;;23.90;;
34060;SDS011;20336;-33.424;-70.638;2022-08-19T09:51:40;54.63;;;24.87;;
34060;SDS011;20336;-33.424;-70.638;2022-08-19T09:54:08;61.23;;;28.47;;
34060;SDS011;20336;-33.424;-70.638;2022-08-19T09:56:35;51.17;;;22.93;;
34060;SDS011;20336;-33.424;-70.638;2022-08-19T09:59:02;46.17;;;22.50;;
34060;SDS011;20336;-33.424;-70.638;2022-08-19T10:01:30;47.53;;;21.23;;
34060;SDS011;20336;-33.424;-70.638;2022-08-19T10:03:57;48.27;;;21.67;;
34060;SDS011;20336;-33.424;-70.638;2022-08-19T10:06:25;43.60;;;20.80;;
34060;SDS011;20336;-33.424;-70.638;2022-08-19T10:08:54;43.00;;;20.27;;
34060;SDS011;20336;-33.424;-70.638;2022-08-19T10:11:21;42.27;;;20.90;;
34060;SDS011;20336;-33.424;-70.638;2022-08-19T10:13:48;97.77;;;29.03;;
34060;SDS011;20336;-33.424;-70.638;2022-08-19T10:16:17;58.47;;;24.97;;
34060;SDS011;20336;-33.424;-70.638;2022-08-19T10:18:45;55.20;;;24.50;;
34060;SDS011;20336;-33.424;-70.638;2022-08-19T10:21:19;50.10;;;21.37;;
34060;SDS011;20336;-33.424;-70.638;2022-08-19T10:23:47;56.30;;;23.23;;
34060;SDS011;20336;-33.424;-70.638;2022-08-19T10:26:16;43.53;;;20.43;;
34060;SDS011;20336;-33.424;-70.638;2022-08-19T10:28:43;43.90;;;20.70;;
34060;SDS011;20336;-33.424;-70.638;2022-08-19T10:31:11;45.23;;;21.67;;
34060;SDS011;20336;-33.424;-70.638;2022-08-19T10:33:39;40.50;;;18.63;;
34060;SDS011;20336;-33.424;-70.638;2022-08-19T10:36:08;37.03;;;16.83;;
34060;SDS011;20336;-33.424;-70.638;2022-08-19T10:38:36;34.20;;;16.03;;
34060;SDS011;20336;-33.424;-70.638;2022-08-19T10:41:10;39.07;;;17.30;;
34060;SDS011;20336;-33.424;-70.638;2022-08-19T10:43:37;36.97;;;16.57;;
34060;SDS011;20336;-33.424;-70.638;2022-08-19T10:46:06;34.60;;;14.60;;
34060;SDS011;20336;-33.424;-70.638;2022-08-19T10:48:33;31.37;;;15.37;;
34060;SDS011;20336;-33.424;-70.638;2022-08-19T10:51:00;35.63;;;15.93;;
34060;SDS011;20336;-33.424;-70.638;2022-08-19T10:53:45;31.07;;;15.50;;
34060;SDS011;20336;-33.424;-70.638;2022-08-19T10:56:12;35.37;;;16.73;;
34060;SDS011;20336;-33.424;-70.638;2022-08-19T10:58:57;33.13;;;15.40;;
34060;SDS011;20336;-33.424;-70.638;2022-08-19T11:01:25;32.27;;;15.07;;
34060;SDS011;20336;-33.424;-70.638;2022-08-19T11:03:52;32.53;;;14.57;;
34060;SDS011;20336;-33.424;-70.638;2022-08-19T11:06:19;29.77;;;14.43;;
34060;SDS011;20336;-33.424;-70.638;2022-08-19T11:08:46;31.73;;;15.80;;
34060;SDS011;20336;-33.424;-70.638;2022-08-19T11:11:13;28.57;;;14.37;;
34060;SDS011;20336;-33.424;-70.638;2022-08-19T11:13:40;32.27;;;14.27;;
34060;SDS011;20336;-33.424;-70.638;2022-08-19T11:16:11;36.60;;;16.50;;
34060;SDS011;20336;-33.424;-70.638;2022-08-19T11:18:40;26.43;;;13.97;;
34060;SDS011;20336;-33.424;-70.638;2022-08-19T11:21:09;30.57;;;15.30;;
34060;SDS011;20336;-33.424;-70.638;2022-08-19T11:23:37;26.87;;;13.33;;
34060;SDS011;20336;-33.424;-70.638;2022-08-19T11:26:04;26.43;;;13.80;;
34060;SDS011;20336;-33.424;-70.638;2022-08-19T11:28:30;24.43;;;11.90;;
34060;SDS011;20336;-33.424;-70.638;2022-08-19T11:30:57;29.53;;;13.80;;
34060;SDS011;20336;-33.424;-70.638;2022-08-19T11:33:24;33.70;;;15.83;;
34060;SDS011;20336;-33.424;-70.638;2022-08-19T11:35:52;28.97;;;13.53;;
34060;SDS011;20336;-33.424;-70.638;2022-08-19T11:38:19;28.43;;;13.40;;
34060;SDS011;20336;-33.424;-70.638;2022-08-19T11:40:53;30.40;;;15.90;;
34060;SDS011;20336;-33.424;-70.638;2022-08-19T11:43:20;31.83;;;15.97;;
34060;SDS011;20336;-33.424;-70.638;2022-08-19T11:45:47;30.90;;;15.53;;
34060;SDS011;20336;-33.424;-70.638;2022-08-19T11:48:14;26.97;;;13.77;;
34060;SDS011;20336;-33.424;-70.638;2022-08-19T11:50:41;29.43;;;15.80;;
34060;SDS011;20336;-33.424;-70.638;2022-08-19T11:53:08;28.70;;;15.30;;
34060;SDS011;20336;-33.424;-70.638;2022-08-19T11:55:38;28.27;;;15.47;;
34060;SDS011;20336;-33.424;-70.638;2022-08-19T11:58:05;32.53;;;16.97;;
34060;SDS011;20336;-33.424;-70.638;2022-08-19T12:00:33;35.03;;;16.40;;
34060;SDS011;20336;-33.424;-70.638;2022-08-19T12:03:02;39.13;;;19.60;;
34060;SDS011;20336;-33.424;-70.638;2022-08-19T12:05:28;42.57;;;20.07;;
34060;SDS011;20336;-33.424;-70.638;2022-08-19T12:07:55;31.70;;;16.97;;
34060;SDS011;20336;-33.424;-70.638;2022-08-19T12:10:22;37.63;;;18.97;;
34060;SDS011;20336;-33.424;-70.638;2022-08-19T12:12:50;33.73;;;16.30;;
34060;SDS011;20336;-33.424;-70.638;2022-08-19T12:15:16;30.43;;;16.17;;
34060;SDS011;20336;-33.424;-70.638;2022-08-19T12:17:43;34.53;;;16.90;;
34060;SDS011;20336;-33.424;-70.638;2022-08-19T12:20:10;32.90;;;18.37;;
34060;SDS011;20336;-33.424;-70.638;2022-08-19T12:22:38;35.03;;;16.50;;
34060;SDS011;20336;-33.424;-70.638;2022-08-19T12:25:08;33.20;;;17.43;;
34060;SDS011;20336;-33.424;-70.638;2022-08-19T12:27:35;35.50;;;20.03;;
34060;SDS011;20336;-33.424;-70.638;2022-08-19T12:30:03;35.60;;;19.10;;
34060;SDS011;20336;-33.424;-70.638;2022-08-19T12:32:30;37.53;;;20.33;;
34060;SDS011;20336;-33.424;-70.638;2022-08-19T12:34:57;37.07;;;20.60;;
34060;SDS011;20336;-33.424;-70.638;2022-08-19T12:37:24;35.00;;;18.43;;
34060;SDS011;20336;-33.424;-70.638;2022-08-19T12:39:51;38.13;;;19.43;;
34060;SDS011;20336;-33.424;-70.638;2022-08-19T12:42:18;36.50;;;19.20;;
34060;SDS011;20336;-33.424;-70.638;2022-08-19T12:44:47;37.30;;;19.33;;
34060;SDS011;20336;-33.424;-70.638;2022-08-19T12:47:14;36.60;;;19.87;;
34060;SDS011;20336;-33.424;-70.638;2022-08-19T12:49:42;36.27;;;20.03;;
34060;SDS011;20336;-33.424;-70.638;2022-08-19T12:52:11;36.57;;;19.03;;
34060;SDS011;20336;-33.424;-70.638;2022-08-19T12:54:42;34.43;;;18.10;;
34060;SDS011;20336;-33.424;-70.638;2022-08-19T12:57:09;38.67;;;19.73;;
34060;SDS011;20336;-33.424;-70.638;2022-08-19T12:59:37;30.37;;;16.53;;
34060;SDS011;20336;-33.424;-70.638;2022-08-19T13:02:07;32.13;;;17.00;;
34060;SDS011;20336;-33.424;-70.638;2022-08-19T13:04:34;35.57;;;17.13;;
34060;SDS011;20336;-33.424;-70.638;2022-08-19T13:07:06;29.07;;;14.90;;
34060;SDS011;20336;-33.424;-70.638;2022-08-19T13:09:34;27.43;;;15.33;;
34060;SDS011;20336;-33.424;-70.638;2022-08-19T13:12:01;36.63;;;17.57;;
34060;SDS011;20336;-33.424;-70.638;2022-08-19T13:14:29;31.97;;;16.60;;
34060;SDS011;20336;-33.424;-70.638;2022-08-19T13:16:56;34.13;;;19.23;;
34060;SDS011;20336;-33.424;-70.638;2022-08-19T13:19:23;34.20;;;18.43;;
34060;SDS011;20336;-33.424;-70.638;2022-08-19T13:21:50;22.60;;;12.80;;
34060;SDS011;20336;-33.424;-70.638;2022-08-19T13:24:20;27.03;;;14.03;;
34060;SDS011;20336;-33.424;-70.638;2022-08-19T13:26:47;26.43;;;14.50;;
34060;SDS011;20336;-33.424;-70.638;2022-08-19T13:29:14;24.13;;;13.03;;
34060;SDS011;20336;-33.424;-70.638;2022-08-19T13:31:59;20.53;;;10.90;;
34060;SDS011;20336;-33.424;-70.638;2022-08-19T13:34:44;25.70;;;14.23;;
34060;SDS011;20336;-33.424;-70.638;2022-08-19T13:37:12;31.37;;;16.53;;
34060;SDS011;20336;-33.424;-70.638;2022-08-19T13:39:39;39.20;;;20.63;;
34060;SDS011;20336;-33.424;-70.638;2022-08-19T13:42:06;31.00;;;15.87;;
34060;SDS011;20336;-33.424;-70.638;2022-08-19T13:44:33;28.77;;;15.70;;
34060;SDS011;20336;-33.424;-70.638;2022-08-19T13:47:01;32.87;;;17.10;;
34060;SDS011;20336;-33.424;-70.638;2022-08-19T13:49:32;25.67;;;14.03;;
34060;SDS011;20336;-33.424;-70.638;2022-08-19T13:51:59;28.13;;;15.33;;
34060;SDS011;20336;-33.424;-70.638;2022-08-19T13:54:26;23.20;;;12.90;;
34060;SDS011;20336;-33.424;-70.638;2022-08-19T13:56:53;37.30;;;18.60;;
34060;SDS011;20336;-33.424;-70.638;2022-08-19T13:59:19;20.70;;;10.13;;
34060;SDS011;20336;-33.424;-70.638;2022-08-19T14:01:46;27.03;;;15.30;;
34060;SDS011;20336;-33.424;-70.638;2022-08-19T14:04:13;17.03;;;10.03;;